sensor_id;sensor_type;location;lat;lon;timestamp;temperature;humidity
9820;DHT22;4949;48.482;9.206;2023-03-08T00:00:47;4.80;52.10
9820;DHT22;4949;48.482;9.206;2023-03-08T00:05:48;4.80;52.40
9820;DHT22;4949;48.482;9.206;2023-03-08T00:10:51;4.80;52.40
9820;DHT22;4949;48.482;9.206;2023-03-08T00:15:58;4.80;52.70
9820;DHT22;4949;48.482;9.206;2023-03-08T00:21:08;5.00;52.50
9820;DHT22;4949;48.482;9.206;2023-03-08T00:26:09;4.90;52.50
9820;DHT22;4949;48.482;9.206;2023-03-08T00:31:13;4.90;52.70
9820;DHT22;4949;48.482;9.206;2023-03-08T00:36:17;4.90;52.40
9820;DHT22;4949;48.482;9.206;2023-03-08T00:41:18;4.90;53.00
9820;DHT22;4949;48.482;9.206;2023-03-08T00:46:19;4.90;52.80
9820;DHT22;4949;48.482;9.206;2023-03-08T00:51:20;4.80;52.80
9820;DHT22;4949;48.482;9.206;2023-03-08T00:56:23;4.80;52.80
9820;DHT22;4949;48.482;9.206;2023-03-08T01:01:27;4.80;53.10
9820;DHT22;4949;48.482;9.206;2023-03-08T01:06:30;4.90;52.80
9820;DHT22;4949;48.482;9.206;2023-03-08T01:11:31;4.90;52.50
9820;DHT22;4949;48.482;9.206;2023-03-08T01:16:35;4.80;52.60
9820;DHT22;4949;48.482;9.206;2023-03-08T01:21:36;4.80;52.70
9820;DHT22;4949;48.482;9.206;2023-03-08T01:26:39;4.80;52.70
9820;DHT22;4949;48.482;9.206;2023-03-08T01:31:42;4.80;52.80
9820;DHT22;4949;48.482;9.206;2023-03-08T01:36:43;4.90;52.60
9820;DHT22;4949;48.482;9.206;2023-03-08T01:41:44;4.90;51.90
9820;DHT22;4949;48.482;9.206;2023-03-08T01:46:48;4.90;52.20
9820;DHT22;4949;48.482;9.206;2023-03-08T01:52:06;4.90;52.20
9820;DHT22;4949;48.482;9.206;2023-03-08T01:57:20;4.90;52.00
9820;DHT22;4949;48.482;9.206;2023-03-08T02:02:26;4.90;52.00
9820;DHT22;4949;48.482;9.206;2023-03-08T02:07:30;4.90;51.90
9820;DHT22;4949;48.482;9.206;2023-03-08T02:12:34;5.00;51.90
9820;DHT22;4949;48.482;9.206;2023-03-08T02:17:39;5.00;51.80
9820;DHT22;4949;48.482;9.206;2023-03-08T02:22:43;5.00;52.10
9820;DHT22;4949;48.482;9.206;2023-03-08T02:27:44;5.00;51.40
9820;DHT22;4949;48.482;9.206;2023-03-08T02:32:47;5.10;51.70
9820;DHT22;4949;48.482;9.206;2023-03-08T02:37:48;5.10;51.90
9820;DHT22;4949;48.482;9.206;2023-03-08T02:42:49;5.00;52.10
9820;DHT22;4949;48.482;9.206;2023-03-08T02:47:50;5.20;52.60
9820;DHT22;4949;48.482;9.206;2023-03-08T02:52:51;5.20;52.00
9820;DHT22;4949;48.482;9.206;2023-03-08T02:57:51;5.00;52.50
9820;DHT22;4949;48.482;9.206;2023-03-08T03:02:52;5.10;52.60
9820;DHT22;4949;48.482;9.206;2023-03-08T03:07:53;5.10;52.30
9820;DHT22;4949;48.482;9.206;2023-03-08T03:13:00;5.40;52.40
9820;DHT22;4949;48.482;9.206;2023-03-08T03:18:06;5.50;51.70
9820;DHT22;4949;48.482;9.206;2023-03-08T03:23:07;5.40;51.40
9820;DHT22;4949;48.482;9.206;2023-03-08T03:28:08;5.30;51.60
9820;DHT22;4949;48.482;9.206;2023-03-08T03:33:09;5.40;51.60
9820;DHT22;4949;48.482;9.206;2023-03-08T03:38:12;5.40;51.70
9820;DHT22;4949;48.482;9.206;2023-03-08T03:43:13;5.60;51.30
9820;DHT22;4949;48.482;9.206;2023-03-08T03:48:16;5.50;51.40
9820;DHT22;4949;48.482;9.206;2023-03-08T03:53:17;5.50;51.30
9820;DHT22;4949;48.482;9.206;2023-03-08T03:58:20;5.50;51.30
9820;DHT22;4949;48.482;9.206;2023-03-08T04:03:24;5.50;51.30
9820;DHT22;4949;48.482;9.206;2023-03-08T04:08:25;5.40;51.20
9820;DHT22;4949;48.482;9.206;2023-03-08T04:13:29;5.40;51.60
9820;DHT22;4949;48.482;9.206;2023-03-08T04:18:31;5.10;52.30
9820;DHT22;4949;48.482;9.206;2023-03-08T04:23:33;4.90;53.30
9820;DHT22;4949;48.482;9.206;2023-03-08T04:28:34;4.70;53.90
9820;DHT22;4949;48.482;9.206;2023-03-08T04:33:35;4.50;54.50
9820;DHT22;4949;48.482;9.206;2023-03-08T04:38:40;4.50;54.80
9820;DHT22;4949;48.482;9.206;2023-03-08T04:43:47;4.50;54.80
9820;DHT22;4949;48.482;9.206;2023-03-08T04:48:51;4.50;54.80
9820;DHT22;4949;48.482;9.206;2023-03-08T04:53:55;4.60;54.90
9820;DHT22;4949;48.482;9.206;2023-03-08T04:58:58;4.60;55.20
9820;DHT22;4949;48.482;9.206;2023-03-08T05:03:58;4.60;55.30
9820;DHT22;4949;48.482;9.206;2023-03-08T05:08:59;4.60;55.50
9820;DHT22;4949;48.482;9.206;2023-03-08T05:14:00;4.50;55.50
9820;DHT22;4949;48.482;9.206;2023-03-08T05:19:01;4.60;55.80
9820;DHT22;4949;48.482;9.206;2023-03-08T05:24:02;4.60;55.80
9820;DHT22;4949;48.482;9.206;2023-03-08T05:29:07;4.60;55.80
9820;DHT22;4949;48.482;9.206;2023-03-08T05:34:10;4.70;55.80
9820;DHT22;4949;48.482;9.206;2023-03-08T05:39:15;4.60;55.70
9820;DHT22;4949;48.482;9.206;2023-03-08T05:44:16;4.80;56.00
9820;DHT22;4949;48.482;9.206;2023-03-08T05:49:17;4.80;56.10
9820;DHT22;4949;48.482;9.206;2023-03-08T05:54:20;4.90;56.40
9820;DHT22;4949;48.482;9.206;2023-03-08T05:59:21;4.70;56.60
9820;DHT22;4949;48.482;9.206;2023-03-08T06:04:22;4.80;56.90
9820;DHT22;4949;48.482;9.206;2023-03-08T06:09:25;4.80;57.30
9820;DHT22;4949;48.482;9.206;2023-03-08T06:14:26;4.80;57.50
9820;DHT22;4949;48.482;9.206;2023-03-08T06:19:27;4.90;57.60
9820;DHT22;4949;48.482;9.206;2023-03-08T06:24:28;4.90;57.60
9820;DHT22;4949;48.482;9.206;2023-03-08T06:29:28;4.90;57.80
9820;DHT22;4949;48.482;9.206;2023-03-08T06:34:29;5.00;57.70
9820;DHT22;4949;48.482;9.206;2023-03-08T06:39:34;5.10;57.90
9820;DHT22;4949;48.482;9.206;2023-03-08T06:44:35;5.30;58.10
9820;DHT22;4949;48.482;9.206;2023-03-08T06:49:38;5.20;58.00
9820;DHT22;4949;48.482;9.206;2023-03-08T06:54:38;5.30;58.20
9820;DHT22;4949;48.482;9.206;2023-03-08T06:59:39;5.30;58.40
9820;DHT22;4949;48.482;9.206;2023-03-08T07:04:45;5.40;58.30
9820;DHT22;4949;48.482;9.206;2023-03-08T07:09:45;5.40;58.50
9820;DHT22;4949;48.482;9.206;2023-03-08T07:14:46;5.50;58.70
9820;DHT22;4949;48.482;9.206;2023-03-08T07:19:49;5.50;58.90
9820;DHT22;4949;48.482;9.206;2023-03-08T07:24:50;5.50;59.10
9820;DHT22;4949;48.482;9.206;2023-03-08T07:29:53;5.50;59.20
9820;DHT22;4949;48.482;9.206;2023-03-08T07:34:55;5.60;59.00
9820;DHT22;4949;48.482;9.206;2023-03-08T07:39:56;5.60;59.10
9820;DHT22;4949;48.482;9.206;2023-03-08T07:44:59;5.70;59.00
9820;DHT22;4949;48.482;9.206;2023-03-08T07:50:00;5.80;59.10
9820;DHT22;4949;48.482;9.206;2023-03-08T07:55:00;5.90;59.00
9820;DHT22;4949;48.482;9.206;2023-03-08T08:00:03;6.00;59.00
9820;DHT22;4949;48.482;9.206;2023-03-08T08:05:07;6.10;59.10
9820;DHT22;4949;48.482;9.206;2023-03-08T08:10:10;6.30;59.00
9820;DHT22;4949;48.482;9.206;2023-03-08T08:15:11;6.70;59.30
9820;DHT22;4949;48.482;9.206;2023-03-08T08:20:12;6.50;58.80
9820;DHT22;4949;48.482;9.206;2023-03-08T08:25:14;6.70;58.30
9820;DHT22;4949;48.482;9.206;2023-03-08T08:30:14;6.60;58.20
9820;DHT22;4949;48.482;9.206;2023-03-08T08:35:18;6.70;58.30
9820;DHT22;4949;48.482;9.206;2023-03-08T08:40:19;6.70;58.20
9820;DHT22;4949;48.482;9.206;2023-03-08T08:45:20;6.90;57.90
9820;DHT22;4949;48.482;9.206;2023-03-08T08:50:23;7.00;57.70
9820;DHT22;4949;48.482;9.206;2023-03-08T08:55:29;7.10;58.20
9820;DHT22;4949;48.482;9.206;2023-03-08T09:00:31;7.20;57.90
9820;DHT22;4949;48.482;9.206;2023-03-08T09:05:36;7.20;58.20
9820;DHT22;4949;48.482;9.206;2023-03-08T09:10:40;7.20;58.20
9820;DHT22;4949;48.482;9.206;2023-03-08T09:15:44;7.30;58.00
9820;DHT22;4949;48.482;9.206;2023-03-08T09:20:44;7.40;58.00
9820;DHT22;4949;48.482;9.206;2023-03-08T09:25:55;7.40;58.30
9820;DHT22;4949;48.482;9.206;2023-03-08T09:30:57;7.40;58.50
9820;DHT22;4949;48.482;9.206;2023-03-08T09:36:01;7.40;58.60
9820;DHT22;4949;48.482;9.206;2023-03-08T09:41:34;7.50;58.60
9820;DHT22;4949;48.482;9.206;2023-03-08T09:47:06;7.60;59.30
9820;DHT22;4949;48.482;9.206;2023-03-08T09:52:25;7.80;63.00
9820;DHT22;4949;48.482;9.206;2023-03-08T09:57:35;8.00;63.60
9820;DHT22;4949;48.482;9.206;2023-03-08T10:08:53;8.50;64.50
9820;DHT22;4949;48.482;9.206;2023-03-08T10:14:02;8.80;65.90
9820;DHT22;4949;48.482;9.206;2023-03-08T10:24:39;9.00;66.80
9820;DHT22;4949;48.482;9.206;2023-03-08T10:29:47;9.20;67.10
9820;DHT22;4949;48.482;9.206;2023-03-08T10:35:03;9.30;67.90
9820;DHT22;4949;48.482;9.206;2023-03-08T10:40:16;9.40;68.00
9820;DHT22;4949;48.482;9.206;2023-03-08T10:45:23;9.60;67.70
9820;DHT22;4949;48.482;9.206;2023-03-08T10:50:31;9.90;67.70
9820;DHT22;4949;48.482;9.206;2023-03-08T10:55:49;10.00;65.90
9820;DHT22;4949;48.482;9.206;2023-03-08T11:00:53;10.20;65.40
9820;DHT22;4949;48.482;9.206;2023-03-08T11:11:08;10.60;65.10
9820;DHT22;4949;48.482;9.206;2023-03-08T11:26:39;11.40;63.80
9820;DHT22;4949;48.482;9.206;2023-03-08T11:32:09;11.60;63.20
9820;DHT22;4949;48.482;9.206;2023-03-08T11:42:54;12.30;61.00
9820;DHT22;4949;48.482;9.206;2023-03-08T12:04:02;12.80;60.00
9820;DHT22;4949;48.482;9.206;2023-03-08T12:19:56;13.00;59.20
9820;DHT22;4949;48.482;9.206;2023-03-08T12:25:27;12.90;59.60
9820;DHT22;4949;48.482;9.206;2023-03-08T12:36:11;12.80;59.90
9820;DHT22;4949;48.482;9.206;2023-03-08T12:41:25;12.70;60.80
9820;DHT22;4949;48.482;9.206;2023-03-08T12:46:26;12.90;60.90
9820;DHT22;4949;48.482;9.206;2023-03-08T12:51:32;12.70;60.50
9820;DHT22;4949;48.482;9.206;2023-03-08T12:56:48;12.70;60.90
9820;DHT22;4949;48.482;9.206;2023-03-08T13:12:36;12.50;62.50
9820;DHT22;4949;48.482;9.206;2023-03-08T13:17:47;12.50;62.60
9820;DHT22;4949;48.482;9.206;2023-03-08T13:28:19;12.80;61.60
9820;DHT22;4949;48.482;9.206;2023-03-08T13:33:27;12.80;61.50
9820;DHT22;4949;48.482;9.206;2023-03-08T13:38:36;12.90;60.60
9820;DHT22;4949;48.482;9.206;2023-03-08T13:43:37;12.80;61.20
9820;DHT22;4949;48.482;9.206;2023-03-08T13:48:42;12.80;60.90
9820;DHT22;4949;48.482;9.206;2023-03-08T13:53:46;12.80;61.00
9820;DHT22;4949;48.482;9.206;2023-03-08T13:58:47;12.90;60.80
9820;DHT22;4949;48.482;9.206;2023-03-08T14:03:52;13.00;60.70
9820;DHT22;4949;48.482;9.206;2023-03-08T14:08:58;12.90;61.10
9820;DHT22;4949;48.482;9.206;2023-03-08T14:14:03;13.00;61.20
9820;DHT22;4949;48.482;9.206;2023-03-08T14:19:22;13.00;61.10
9820;DHT22;4949;48.482;9.206;2023-03-08T14:24:29;13.00;61.30
9820;DHT22;4949;48.482;9.206;2023-03-08T14:29:36;13.00;61.60
9820;DHT22;4949;48.482;9.206;2023-03-08T14:34:47;13.10;62.90
9820;DHT22;4949;48.482;9.206;2023-03-08T14:39:52;13.00;63.30
9820;DHT22;4949;48.482;9.206;2023-03-08T14:56:16;13.10;63.60
9820;DHT22;4949;48.482;9.206;2023-03-08T15:01:28;13.40;62.50
9820;DHT22;4949;48.482;9.206;2023-03-08T15:06:34;13.90;61.00
9820;DHT22;4949;48.482;9.206;2023-03-08T15:11:36;13.90;60.80
9820;DHT22;4949;48.482;9.206;2023-03-08T15:16:39;14.20;59.90
9820;DHT22;4949;48.482;9.206;2023-03-08T15:21:41;14.30;59.00
9820;DHT22;4949;48.482;9.206;2023-03-08T15:26:44;14.30;59.30
9820;DHT22;4949;48.482;9.206;2023-03-08T15:31:45;14.40;59.00
9820;DHT22;4949;48.482;9.206;2023-03-08T15:36:47;14.30;59.00
9820;DHT22;4949;48.482;9.206;2023-03-08T15:41:48;14.20;59.20
9820;DHT22;4949;48.482;9.206;2023-03-08T15:46:49;13.80;60.10
9820;DHT22;4949;48.482;9.206;2023-03-08T15:51:50;13.50;60.50
9820;DHT22;4949;48.482;9.206;2023-03-08T15:56:53;13.50;60.30
9820;DHT22;4949;48.482;9.206;2023-03-08T16:01:54;13.40;60.40
9820;DHT22;4949;48.482;9.206;2023-03-08T16:06:55;13.50;60.60
9820;DHT22;4949;48.482;9.206;2023-03-08T16:11:57;13.30;61.30
9820;DHT22;4949;48.482;9.206;2023-03-08T16:16:57;13.40;61.80
9820;DHT22;4949;48.482;9.206;2023-03-08T16:21:58;13.10;66.40
9820;DHT22;4949;48.482;9.206;2023-03-08T16:26:59;12.80;69.40
9820;DHT22;4949;48.482;9.206;2023-03-08T16:32:00;12.50;71.60
9820;DHT22;4949;48.482;9.206;2023-03-08T16:37:01;12.50;71.80
9820;DHT22;4949;48.482;9.206;2023-03-08T16:42:08;12.30;72.00
9820;DHT22;4949;48.482;9.206;2023-03-08T16:47:13;12.20;72.80
9820;DHT22;4949;48.482;9.206;2023-03-08T16:52:15;12.20;72.70
9820;DHT22;4949;48.482;9.206;2023-03-08T16:57:18;12.20;73.60
9820;DHT22;4949;48.482;9.206;2023-03-08T17:02:21;12.30;72.00
9820;DHT22;4949;48.482;9.206;2023-03-08T17:07:24;12.10;73.50
9820;DHT22;4949;48.482;9.206;2023-03-08T17:12:25;12.00;73.30
9820;DHT22;4949;48.482;9.206;2023-03-08T17:17:29;12.10;72.30
9820;DHT22;4949;48.482;9.206;2023-03-08T17:22:33;12.00;71.60
9820;DHT22;4949;48.482;9.206;2023-03-08T17:27:38;12.00;71.20
9820;DHT22;4949;48.482;9.206;2023-03-08T17:32:39;12.00;70.70
9820;DHT22;4949;48.482;9.206;2023-03-08T17:37:40;12.00;70.30
9820;DHT22;4949;48.482;9.206;2023-03-08T17:42:44;12.00;70.60
9820;DHT22;4949;48.482;9.206;2023-03-08T17:47:50;11.80;70.80
9820;DHT22;4949;48.482;9.206;2023-03-08T17:53:00;11.90;70.30
9820;DHT22;4949;48.482;9.206;2023-03-08T17:58:01;11.90;70.00
9820;DHT22;4949;48.482;9.206;2023-03-08T18:03:04;11.90;69.70
9820;DHT22;4949;48.482;9.206;2023-03-08T18:08:05;11.80;69.10
9820;DHT22;4949;48.482;9.206;2023-03-08T18:13:11;11.90;68.40
9820;DHT22;4949;48.482;9.206;2023-03-08T18:18:14;11.90;67.50
9820;DHT22;4949;48.482;9.206;2023-03-08T18:23:14;11.90;67.60
9820;DHT22;4949;48.482;9.206;2023-03-08T18:28:17;11.80;67.40
9820;DHT22;4949;48.482;9.206;2023-03-08T18:33:18;11.90;67.60
9820;DHT22;4949;48.482;9.206;2023-03-08T18:38:24;11.90;67.20
9820;DHT22;4949;48.482;9.206;2023-03-08T18:43:30;11.90;68.20
9820;DHT22;4949;48.482;9.206;2023-03-08T18:48:30;11.70;70.20
9820;DHT22;4949;48.482;9.206;2023-03-08T18:59:12;11.30;71.40
9820;DHT22;4949;48.482;9.206;2023-03-08T19:04:13;11.40;71.80
9820;DHT22;4949;48.482;9.206;2023-03-08T19:09:15;11.20;72.00
9820;DHT22;4949;48.482;9.206;2023-03-08T19:14:16;11.30;71.60
9820;DHT22;4949;48.482;9.206;2023-03-08T19:19:20;11.40;72.10
9820;DHT22;4949;48.482;9.206;2023-03-08T19:24:30;11.40;72.50
9820;DHT22;4949;48.482;9.206;2023-03-08T19:29:31;11.40;73.60
9820;DHT22;4949;48.482;9.206;2023-03-08T19:34:37;11.40;73.30
9820;DHT22;4949;48.482;9.206;2023-03-08T19:39:47;11.60;73.10
9820;DHT22;4949;48.482;9.206;2023-03-08T19:44:58;11.60;74.10
9820;DHT22;4949;48.482;9.206;2023-03-08T19:49:59;11.70;74.80
9820;DHT22;4949;48.482;9.206;2023-03-08T19:55:05;11.70;75.20
9820;DHT22;4949;48.482;9.206;2023-03-08T20:00:06;11.70;74.80
9820;DHT22;4949;48.482;9.206;2023-03-08T20:05:10;11.70;75.20
9820;DHT22;4949;48.482;9.206;2023-03-08T20:10:15;11.70;74.70
9820;DHT22;4949;48.482;9.206;2023-03-08T20:15:20;11.80;75.80
9820;DHT22;4949;48.482;9.206;2023-03-08T20:20:21;11.70;76.00
9820;DHT22;4949;48.482;9.206;2023-03-08T20:25:24;11.80;76.10
9820;DHT22;4949;48.482;9.206;2023-03-08T20:30:25;11.80;77.20
9820;DHT22;4949;48.482;9.206;2023-03-08T20:35:25;11.70;77.40
9820;DHT22;4949;48.482;9.206;2023-03-08T20:40:28;11.80;77.10
9820;DHT22;4949;48.482;9.206;2023-03-08T20:45:31;11.70;77.80
9820;DHT22;4949;48.482;9.206;2023-03-08T20:50:37;11.70;79.10
9820;DHT22;4949;48.482;9.206;2023-03-08T20:55:38;11.60;79.80
9820;DHT22;4949;48.482;9.206;2023-03-08T21:00:39;11.60;80.30
9820;DHT22;4949;48.482;9.206;2023-03-08T21:05:40;11.40;81.70
9820;DHT22;4949;48.482;9.206;2023-03-08T21:10:41;11.40;82.20
9820;DHT22;4949;48.482;9.206;2023-03-08T21:15:42;11.30;83.30
9820;DHT22;4949;48.482;9.206;2023-03-08T21:20:42;11.40;82.00
9820;DHT22;4949;48.482;9.206;2023-03-08T21:25:45;11.40;82.60
9820;DHT22;4949;48.482;9.206;2023-03-08T21:30:47;11.40;82.20
9820;DHT22;4949;48.482;9.206;2023-03-08T21:35:51;11.40;82.10
9820;DHT22;4949;48.482;9.206;2023-03-08T21:40:52;11.40;80.90
9820;DHT22;4949;48.482;9.206;2023-03-08T21:45:53;11.50;80.70
9820;DHT22;4949;48.482;9.206;2023-03-08T21:50:56;11.40;81.00
9820;DHT22;4949;48.482;9.206;2023-03-08T21:55:59;11.50;80.50
9820;DHT22;4949;48.482;9.206;2023-03-08T22:01:05;11.50;80.60
9820;DHT22;4949;48.482;9.206;2023-03-08T22:06:07;11.50;79.50
9820;DHT22;4949;48.482;9.206;2023-03-08T22:11:10;11.40;79.00
9820;DHT22;4949;48.482;9.206;2023-03-08T22:16:13;11.50;79.00
9820;DHT22;4949;48.482;9.206;2023-03-08T22:21:14;11.50;77.70
9820;DHT22;4949;48.482;9.206;2023-03-08T22:26:15;11.60;77.40
9820;DHT22;4949;48.482;9.206;2023-03-08T22:31:23;11.70;76.30
9820;DHT22;4949;48.482;9.206;2023-03-08T22:36:27;11.70;75.50
9820;DHT22;4949;48.482;9.206;2023-03-08T22:41:29;11.80;75.00
9820;DHT22;4949;48.482;9.206;2023-03-08T22:46:30;11.90;73.70
9820;DHT22;4949;48.482;9.206;2023-03-08T22:51:32;12.00;73.40
9820;DHT22;4949;48.482;9.206;2023-03-08T22:56:35;12.10;74.40
9820;DHT22;4949;48.482;9.206;2023-03-08T23:01:36;12.10;76.80
9820;DHT22;4949;48.482;9.206;2023-03-08T23:06:37;11.90;77.30
9820;DHT22;4949;48.482;9.206;2023-03-08T23:11:39;11.80;78.30
9820;DHT22;4949;48.482;9.206;2023-03-08T23:16:42;11.80;78.50
9820;DHT22;4949;48.482;9.206;2023-03-08T23:21:44;11.70;77.60
9820;DHT22;4949;48.482;9.206;2023-03-08T23:26:45;11.70;78.10
9820;DHT22;4949;48.482;9.206;2023-03-08T23:31:46;11.70;77.70
9820;DHT22;4949;48.482;9.206;2023-03-08T23:36:47;11.60;77.00
9820;DHT22;4949;48.482;9.206;2023-03-08T23:41:47;11.70;75.90
9820;DHT22;4949;48.482;9.206;2023-03-08T23:46:50;11.70;75.10
9820;DHT22;4949;48.482;9.206;2023-03-08T23:51:51;11.80;75.40
9820;DHT22;4949;48.482;9.206;2023-03-08T23:56:55;12.10;75.30
